sensor_id;sensor_type;location;lat;lon;timestamp;P1;durP1;ratioP1;P2;durP2;ratioP2
10511;SDS011;5304;48.604;2.096;2023-05-07T00:02:18;3.67;;;1.50;;
10511;SDS011;5304;48.604;2.096;2023-05-07T00:05:02;3.17;;;1.50;;
10511;SDS011;5304;48.604;2.096;2023-05-07T00:07:47;6.37;;;1.53;;
10511;SDS011;5304;48.604;2.096;2023-05-07T00:10:31;1.63;;;1.47;;
10511;SDS011;5304;48.604;2.096;2023-05-07T00:13:16;3.30;;;1.40;;
10511;SDS011;5304;48.604;2.096;2023-05-07T00:16:01;1.63;;;1.20;;
10511;SDS011;5304;48.604;2.096;2023-05-07T00:18:46;2.60;;;1.47;;
10511;SDS011;5304;48.604;2.096;2023-05-07T00:21:31;3.80;;;1.30;;
10511;SDS011;5304;48.604;2.096;2023-05-07T00:24:15;1.67;;;1.10;;
10511;SDS011;5304;48.604;2.096;2023-05-07T00:26:59;4.27;;;1.13;;
10511;SDS011;5304;48.604;2.096;2023-05-07T00:29:44;2.40;;;1.30;;
10511;SDS011;5304;48.604;2.096;2023-05-07T00:32:28;4.03;;;1.50;;
10511;SDS011;5304;48.604;2.096;2023-05-07T00:35:12;3.10;;;1.50;;
10511;SDS011;5304;48.604;2.096;2023-05-07T00:37:57;2.90;;;1.50;;
10511;SDS011;5304;48.604;2.096;2023-05-07T00:40:41;2.83;;;1.40;;
10511;SDS011;5304;48.604;2.096;2023-05-07T00:43:26;3.43;;;1.67;;
10511;SDS011;5304;48.604;2.096;2023-05-07T00:46:11;2.67;;;1.30;;
10511;SDS011;5304;48.604;2.096;2023-05-07T00:48:56;2.80;;;1.60;;
10511;SDS011;5304;48.604;2.096;2023-05-07T00:51:41;4.93;;;1.40;;
10511;SDS011;5304;48.604;2.096;2023-05-07T00:54:25;4.73;;;1.30;;
10511;SDS011;5304;48.604;2.096;2023-05-07T00:57:10;2.07;;;1.30;;
10511;SDS011;5304;48.604;2.096;2023-05-07T00:59:55;3.60;;;1.30;;
10511;SDS011;5304;48.604;2.096;2023-05-07T01:02:39;1.70;;;1.40;;
10511;SDS011;5304;48.604;2.096;2023-05-07T01:05:24;2.17;;;1.50;;
10511;SDS011;5304;48.604;2.096;2023-05-07T01:08:11;3.60;;;1.37;;
10511;SDS011;5304;48.604;2.096;2023-05-07T01:10:57;4.60;;;1.83;;
10511;SDS011;5304;48.604;2.096;2023-05-07T01:13:42;3.80;;;1.60;;
10511;SDS011;5304;48.604;2.096;2023-05-07T01:16:28;2.30;;;1.80;;
10511;SDS011;5304;48.604;2.096;2023-05-07T01:19:13;2.30;;;1.87;;
10511;SDS011;5304;48.604;2.096;2023-05-07T01:22:04;3.27;;;1.40;;
10511;SDS011;5304;48.604;2.096;2023-05-07T01:24:53;5.83;;;1.80;;
10511;SDS011;5304;48.604;2.096;2023-05-07T01:27:39;2.40;;;1.50;;
10511;SDS011;5304;48.604;2.096;2023-05-07T01:30:24;3.57;;;1.60;;
10511;SDS011;5304;48.604;2.096;2023-05-07T01:33:09;2.13;;;1.20;;
10511;SDS011;5304;48.604;2.096;2023-05-07T01:35:57;2.60;;;1.60;;
10511;SDS011;5304;48.604;2.096;2023-05-07T01:38:43;2.77;;;1.43;;
10511;SDS011;5304;48.604;2.096;2023-05-07T01:41:29;3.13;;;1.80;;
10511;SDS011;5304;48.604;2.096;2023-05-07T01:44:14;1.70;;;1.40;;
10511;SDS011;5304;48.604;2.096;2023-05-07T01:47:00;1.60;;;1.50;;
10511;SDS011;5304;48.604;2.096;2023-05-07T01:49:46;1.53;;;1.30;;
10511;SDS011;5304;48.604;2.096;2023-05-07T01:52:30;2.30;;;1.63;;
10511;SDS011;5304;48.604;2.096;2023-05-07T01:55:15;3.20;;;1.20;;
10511;SDS011;5304;48.604;2.096;2023-05-07T01:58:00;2.03;;;1.40;;
10511;SDS011;5304;48.604;2.096;2023-05-07T02:00:44;2.37;;;1.77;;
10511;SDS011;5304;48.604;2.096;2023-05-07T02:03:29;2.73;;;1.40;;
10511;SDS011;5304;48.604;2.096;2023-05-07T02:06:14;1.77;;;1.40;;
10511;SDS011;5304;48.604;2.096;2023-05-07T02:08:59;2.77;;;1.43;;
10511;SDS011;5304;48.604;2.096;2023-05-07T02:11:43;2.43;;;1.50;;
10511;SDS011;5304;48.604;2.096;2023-05-07T02:14:28;3.43;;;1.33;;
10511;SDS011;5304;48.604;2.096;2023-05-07T02:17:12;1.90;;;1.70;;
10511;SDS011;5304;48.604;2.096;2023-05-07T02:19:57;1.90;;;1.30;;
10511;SDS011;5304;48.604;2.096;2023-05-07T02:22:41;5.73;;;1.40;;
10511;SDS011;5304;48.604;2.096;2023-05-07T02:25:26;6.00;;;1.53;;
10511;SDS011;5304;48.604;2.096;2023-05-07T02:28:10;5.73;;;1.63;;
10511;SDS011;5304;48.604;2.096;2023-05-07T02:30:55;4.40;;;1.70;;
10511;SDS011;5304;48.604;2.096;2023-05-07T02:33:42;4.30;;;1.70;;
10511;SDS011;5304;48.604;2.096;2023-05-07T02:36:26;8.00;;;2.10;;
10511;SDS011;5304;48.604;2.096;2023-05-07T02:39:11;3.27;;;1.60;;
10511;SDS011;5304;48.604;2.096;2023-05-07T02:41:56;1.57;;;1.40;;
10511;SDS011;5304;48.604;2.096;2023-05-07T02:44:41;4.80;;;2.10;;
10511;SDS011;5304;48.604;2.096;2023-05-07T02:47:25;1.70;;;1.50;;
10511;SDS011;5304;48.604;2.096;2023-05-07T02:50:12;3.93;;;1.90;;
10511;SDS011;5304;48.604;2.096;2023-05-07T02:52:57;8.20;;;1.60;;
10511;SDS011;5304;48.604;2.096;2023-05-07T02:55:42;4.43;;;1.83;;
10511;SDS011;5304;48.604;2.096;2023-05-07T02:58:26;5.07;;;1.60;;
10511;SDS011;5304;48.604;2.096;2023-05-07T03:01:10;2.33;;;1.63;;
10511;SDS011;5304;48.604;2.096;2023-05-07T03:03:55;1.40;;;1.23;;
10511;SDS011;5304;48.604;2.096;2023-05-07T03:06:40;2.27;;;1.30;;
10511;SDS011;5304;48.604;2.096;2023-05-07T03:09:24;1.57;;;1.30;;
10511;SDS011;5304;48.604;2.096;2023-05-07T03:12:09;2.40;;;1.20;;
10511;SDS011;5304;48.604;2.096;2023-05-07T03:14:53;2.23;;;1.30;;
10511;SDS011;5304;48.604;2.096;2023-05-07T03:17:38;4.50;;;1.50;;
10511;SDS011;5304;48.604;2.096;2023-05-07T03:20:23;2.40;;;1.50;;
10511;SDS011;5304;48.604;2.096;2023-05-07T03:23:07;3.37;;;1.57;;
10511;SDS011;5304;48.604;2.096;2023-05-07T03:25:52;1.60;;;1.50;;
10511;SDS011;5304;48.604;2.096;2023-05-07T03:28:36;3.17;;;1.40;;
10511;SDS011;5304;48.604;2.096;2023-05-07T03:31:21;1.73;;;1.60;;
10511;SDS011;5304;48.604;2.096;2023-05-07T03:34:05;1.83;;;1.73;;
10511;SDS011;5304;48.604;2.096;2023-05-07T03:36:53;1.43;;;1.33;;
10511;SDS011;5304;48.604;2.096;2023-05-07T03:39:37;2.57;;;1.90;;
10511;SDS011;5304;48.604;2.096;2023-05-07T03:42:22;3.30;;;1.80;;
10511;SDS011;5304;48.604;2.096;2023-05-07T03:45:07;2.30;;;1.80;;
10511;SDS011;5304;48.604;2.096;2023-05-07T03:47:52;2.17;;;1.80;;
10511;SDS011;5304;48.604;2.096;2023-05-07T03:50:37;3.07;;;1.97;;
10511;SDS011;5304;48.604;2.096;2023-05-07T03:53:21;1.80;;;1.47;;
10511;SDS011;5304;48.604;2.096;2023-05-07T03:56:06;5.93;;;1.87;;
10511;SDS011;5304;48.604;2.096;2023-05-07T03:58:50;2.03;;;1.70;;
10511;SDS011;5304;48.604;2.096;2023-05-07T04:01:35;1.70;;;1.60;;
10511;SDS011;5304;48.604;2.096;2023-05-07T04:04:19;2.93;;;1.60;;
10511;SDS011;5304;48.604;2.096;2023-05-07T04:07:04;2.97;;;1.83;;
10511;SDS011;5304;48.604;2.096;2023-05-07T04:09:49;1.87;;;1.73;;
10511;SDS011;5304;48.604;2.096;2023-05-07T04:12:33;2.43;;;1.80;;
10511;SDS011;5304;48.604;2.096;2023-05-07T04:15:18;4.47;;;1.80;;
10511;SDS011;5304;48.604;2.096;2023-05-07T04:18:02;3.60;;;1.50;;
10511;SDS011;5304;48.604;2.096;2023-05-07T04:20:49;1.63;;;1.40;;
10511;SDS011;5304;48.604;2.096;2023-05-07T04:23:33;3.00;;;1.67;;
10511;SDS011;5304;48.604;2.096;2023-05-07T04:26:18;3.20;;;1.50;;
10511;SDS011;5304;48.604;2.096;2023-05-07T04:29:02;3.40;;;1.90;;
10511;SDS011;5304;48.604;2.096;2023-05-07T04:31:47;3.50;;;1.80;;
10511;SDS011;5304;48.604;2.096;2023-05-07T04:34:32;3.67;;;1.60;;
10511;SDS011;5304;48.604;2.096;2023-05-07T04:37:16;2.77;;;1.60;;
10511;SDS011;5304;48.604;2.096;2023-05-07T04:40:01;1.90;;;1.50;;
10511;SDS011;5304;48.604;2.096;2023-05-07T04:42:46;2.13;;;1.53;;
10511;SDS011;5304;48.604;2.096;2023-05-07T04:45:31;3.27;;;1.87;;
10511;SDS011;5304;48.604;2.096;2023-05-07T04:48:15;2.63;;;1.50;;
10511;SDS011;5304;48.604;2.096;2023-05-07T04:51:02;3.33;;;1.70;;
10511;SDS011;5304;48.604;2.096;2023-05-07T04:53:47;2.57;;;1.60;;
10511;SDS011;5304;48.604;2.096;2023-05-07T04:56:32;2.77;;;1.60;;
10511;SDS011;5304;48.604;2.096;2023-05-07T04:59:16;1.60;;;1.50;;
10511;SDS011;5304;48.604;2.096;2023-05-07T05:02:01;2.87;;;1.50;;
10511;SDS011;5304;48.604;2.096;2023-05-07T05:04:47;3.40;;;1.80;;
10511;SDS011;5304;48.604;2.096;2023-05-07T05:07:32;7.93;;;1.60;;
10511;SDS011;5304;48.604;2.096;2023-05-07T05:10:17;3.10;;;1.67;;
10511;SDS011;5304;48.604;2.096;2023-05-07T05:13:01;2.43;;;1.60;;
10511;SDS011;5304;48.604;2.096;2023-05-07T05:15:46;1.83;;;1.27;;
10511;SDS011;5304;48.604;2.096;2023-05-07T05:18:30;3.57;;;1.73;;
10511;SDS011;5304;48.604;2.096;2023-05-07T05:21:15;1.73;;;1.40;;
10511;SDS011;5304;48.604;2.096;2023-05-07T05:23:59;2.07;;;1.70;;
10511;SDS011;5304;48.604;2.096;2023-05-07T05:26:44;2.07;;;1.33;;
10511;SDS011;5304;48.604;2.096;2023-05-07T05:29:28;6.83;;;1.73;;
10511;SDS011;5304;48.604;2.096;2023-05-07T05:32:13;1.87;;;1.67;;
10511;SDS011;5304;48.604;2.096;2023-05-07T05:34:58;1.90;;;1.57;;
10511;SDS011;5304;48.604;2.096;2023-05-07T05:37:42;2.20;;;1.50;;
10511;SDS011;5304;48.604;2.096;2023-05-07T05:40:26;5.03;;;1.40;;
10511;SDS011;5304;48.604;2.096;2023-05-07T05:43:11;1.60;;;1.50;;
10511;SDS011;5304;48.604;2.096;2023-05-07T05:45:56;3.00;;;1.20;;
10511;SDS011;5304;48.604;2.096;2023-05-07T05:48:40;1.77;;;1.67;;
10511;SDS011;5304;48.604;2.096;2023-05-07T05:51:25;5.50;;;1.30;;
10511;SDS011;5304;48.604;2.096;2023-05-07T05:54:09;1.50;;;1.23;;
10511;SDS011;5304;48.604;2.096;2023-05-07T05:56:56;2.27;;;1.50;;
10511;SDS011;5304;48.604;2.096;2023-05-07T05:59:41;1.87;;;1.40;;
10511;SDS011;5304;48.604;2.096;2023-05-07T06:02:26;2.13;;;1.50;;
10511;SDS011;5304;48.604;2.096;2023-05-07T06:05:10;1.57;;;1.47;;
10511;SDS011;5304;48.604;2.096;2023-05-07T06:07:55;2.70;;;1.20;;
10511;SDS011;5304;48.604;2.096;2023-05-07T06:10:39;1.57;;;1.47;;
10511;SDS011;5304;48.604;2.096;2023-05-07T06:13:24;2.03;;;1.40;;
10511;SDS011;5304;48.604;2.096;2023-05-07T06:16:08;2.00;;;1.50;;
10511;SDS011;5304;48.604;2.096;2023-05-07T06:18:53;2.30;;;1.50;;
10511;SDS011;5304;48.604;2.096;2023-05-07T06:21:38;1.70;;;1.50;;
10511;SDS011;5304;48.604;2.096;2023-05-07T06:24:23;2.07;;;1.50;;
10511;SDS011;5304;48.604;2.096;2023-05-07T06:27:08;1.40;;;1.30;;
10511;SDS011;5304;48.604;2.096;2023-05-07T06:29:52;3.20;;;1.30;;
10511;SDS011;5304;48.604;2.096;2023-05-07T06:32:37;1.83;;;1.30;;
10511;SDS011;5304;48.604;2.096;2023-05-07T06:35:24;1.50;;;1.30;;
10511;SDS011;5304;48.604;2.096;2023-05-07T06:38:08;1.67;;;1.50;;
10511;SDS011;5304;48.604;2.096;2023-05-07T06:40:53;1.60;;;1.50;;
10511;SDS011;5304;48.604;2.096;2023-05-07T06:43:39;1.87;;;1.77;;
10511;SDS011;5304;48.604;2.096;2023-05-07T06:46:24;1.60;;;1.33;;
10511;SDS011;5304;48.604;2.096;2023-05-07T06:49:08;1.70;;;1.57;;
10511;SDS011;5304;48.604;2.096;2023-05-07T06:51:53;1.70;;;1.60;;
10511;SDS011;5304;48.604;2.096;2023-05-07T06:54:37;3.73;;;1.63;;
10511;SDS011;5304;48.604;2.096;2023-05-07T06:57:22;6.17;;;1.57;;
10511;SDS011;5304;48.604;2.096;2023-05-07T07:00:06;1.50;;;1.40;;
10511;SDS011;5304;48.604;2.096;2023-05-07T07:02:54;1.60;;;1.50;;
10511;SDS011;5304;48.604;2.096;2023-05-07T07:05:42;3.00;;;2.00;;
10511;SDS011;5304;48.604;2.096;2023-05-07T07:08:26;1.90;;;1.70;;
10511;SDS011;5304;48.604;2.096;2023-05-07T07:11:10;1.70;;;1.60;;
10511;SDS011;5304;48.604;2.096;2023-05-07T07:13:55;3.40;;;1.50;;
10511;SDS011;5304;48.604;2.096;2023-05-07T07:16:40;1.30;;;1.20;;
10511;SDS011;5304;48.604;2.096;2023-05-07T07:19:25;3.70;;;1.43;;
10511;SDS011;5304;48.604;2.096;2023-05-07T07:22:09;2.17;;;1.43;;
10511;SDS011;5304;48.604;2.096;2023-05-07T07:24:54;1.50;;;1.40;;
10511;SDS011;5304;48.604;2.096;2023-05-07T07:27:38;1.57;;;1.37;;
10511;SDS011;5304;48.604;2.096;2023-05-07T07:30:24;1.70;;;1.43;;
10511;SDS011;5304;48.604;2.096;2023-05-07T07:33:09;5.63;;;1.70;;
10511;SDS011;5304;48.604;2.096;2023-05-07T07:35:55;1.30;;;1.17;;
10511;SDS011;5304;48.604;2.096;2023-05-07T07:38:40;2.83;;;1.40;;
10511;SDS011;5304;48.604;2.096;2023-05-07T07:41:24;1.40;;;1.30;;
10511;SDS011;5304;48.604;2.096;2023-05-07T07:44:08;2.00;;;1.40;;
10511;SDS011;5304;48.604;2.096;2023-05-07T07:46:56;1.60;;;1.50;;
10511;SDS011;5304;48.604;2.096;2023-05-07T07:49:41;1.97;;;1.43;;
10511;SDS011;5304;48.604;2.096;2023-05-07T07:52:25;2.47;;;1.50;;
10511;SDS011;5304;48.604;2.096;2023-05-07T07:55:10;3.67;;;1.70;;
10511;SDS011;5304;48.604;2.096;2023-05-07T07:57:55;2.00;;;1.80;;
10511;SDS011;5304;48.604;2.096;2023-05-07T08:00:39;3.27;;;2.00;;
10511;SDS011;5304;48.604;2.096;2023-05-07T08:03:24;4.00;;;2.03;;
10511;SDS011;5304;48.604;2.096;2023-05-07T08:06:09;3.30;;;2.30;;
10511;SDS011;5304;48.604;2.096;2023-05-07T08:08:53;2.50;;;2.30;;
10511;SDS011;5304;48.604;2.096;2023-05-07T08:11:39;5.07;;;2.50;;
10511;SDS011;5304;48.604;2.096;2023-05-07T08:14:24;3.00;;;2.77;;
10511;SDS011;5304;48.604;2.096;2023-05-07T08:17:08;3.10;;;2.80;;
10511;SDS011;5304;48.604;2.096;2023-05-07T08:19:53;3.20;;;2.80;;
10511;SDS011;5304;48.604;2.096;2023-05-07T08:22:38;4.00;;;3.47;;
10511;SDS011;5304;48.604;2.096;2023-05-07T08:25:23;3.67;;;2.97;;
10511;SDS011;5304;48.604;2.096;2023-05-07T08:28:08;6.43;;;3.07;;
10511;SDS011;5304;48.604;2.096;2023-05-07T08:30:53;5.73;;;3.63;;
10511;SDS011;5304;48.604;2.096;2023-05-07T08:33:37;7.00;;;3.43;;
10511;SDS011;5304;48.604;2.096;2023-05-07T08:36:22;6.90;;;3.13;;
10511;SDS011;5304;48.604;2.096;2023-05-07T08:39:06;5.93;;;3.50;;
10511;SDS011;5304;48.604;2.096;2023-05-07T08:41:51;6.33;;;3.33;;
10511;SDS011;5304;48.604;2.096;2023-05-07T08:44:40;4.63;;;3.43;;
10511;SDS011;5304;48.604;2.096;2023-05-07T08:47:31;6.07;;;4.17;;
10511;SDS011;5304;48.604;2.096;2023-05-07T08:50:23;6.07;;;3.90;;
10511;SDS011;5304;48.604;2.096;2023-05-07T08:53:07;5.50;;;4.10;;
10511;SDS011;5304;48.604;2.096;2023-05-07T08:55:52;5.63;;;4.40;;
10511;SDS011;5304;48.604;2.096;2023-05-07T08:58:36;6.13;;;4.30;;
10511;SDS011;5304;48.604;2.096;2023-05-07T09:01:21;7.50;;;4.50;;
10511;SDS011;5304;48.604;2.096;2023-05-07T09:04:06;9.03;;;4.93;;
10511;SDS011;5304;48.604;2.096;2023-05-07T09:06:50;7.00;;;5.00;;
10511;SDS011;5304;48.604;2.096;2023-05-07T09:09:35;6.03;;;4.90;;
10511;SDS011;5304;48.604;2.096;2023-05-07T09:12:20;5.27;;;4.73;;
10511;SDS011;5304;48.604;2.096;2023-05-07T09:15:05;10.40;;;5.07;;
10511;SDS011;5304;48.604;2.096;2023-05-07T09:17:50;6.40;;;5.00;;
10511;SDS011;5304;48.604;2.096;2023-05-07T09:20:41;6.60;;;4.63;;
10511;SDS011;5304;48.604;2.096;2023-05-07T09:23:25;5.83;;;4.40;;
10511;SDS011;5304;48.604;2.096;2023-05-07T09:26:10;4.90;;;4.47;;
10511;SDS011;5304;48.604;2.096;2023-05-07T09:28:55;5.43;;;4.93;;
10511;SDS011;5304;48.604;2.096;2023-05-07T09:31:39;5.23;;;4.50;;
10511;SDS011;5304;48.604;2.096;2023-05-07T09:34:24;6.70;;;4.40;;
10511;SDS011;5304;48.604;2.096;2023-05-07T09:37:08;6.53;;;4.40;;
10511;SDS011;5304;48.604;2.096;2023-05-07T09:39:53;5.83;;;4.57;;
10511;SDS011;5304;48.604;2.096;2023-05-07T09:42:38;6.03;;;4.07;;
10511;SDS011;5304;48.604;2.096;2023-05-07T09:45:26;7.37;;;4.27;;
10511;SDS011;5304;48.604;2.096;2023-05-07T09:48:11;6.83;;;4.97;;
10511;SDS011;5304;48.604;2.096;2023-05-07T09:51:02;4.37;;;3.50;;
10511;SDS011;5304;48.604;2.096;2023-05-07T09:53:50;3.47;;;3.17;;
10511;SDS011;5304;48.604;2.096;2023-05-07T09:56:35;6.10;;;3.80;;
10511;SDS011;5304;48.604;2.096;2023-05-07T09:59:21;5.23;;;3.67;;
10511;SDS011;5304;48.604;2.096;2023-05-07T10:02:07;5.23;;;3.50;;
10511;SDS011;5304;48.604;2.096;2023-05-07T10:04:56;5.27;;;3.60;;
10511;SDS011;5304;48.604;2.096;2023-05-07T10:07:44;4.05;;;3.70;;
10511;SDS011;5304;48.604;2.096;2023-05-07T10:10:29;4.37;;;3.97;;
10511;SDS011;5304;48.604;2.096;2023-05-07T10:13:16;5.63;;;3.33;;
10511;SDS011;5304;48.604;2.096;2023-05-07T10:16:05;3.30;;;3.00;;
10511;SDS011;5304;48.604;2.096;2023-05-07T10:18:53;4.35;;;3.20;;
10511;SDS011;5304;48.604;2.096;2023-05-07T10:21:48;5.10;;;3.67;;
10511;SDS011;5304;48.604;2.096;2023-05-07T10:24:39;3.60;;;3.30;;
10511;SDS011;5304;48.604;2.096;2023-05-07T10:27:23;3.90;;;3.10;;
10511;SDS011;5304;48.604;2.096;2023-05-07T10:33:06;4.63;;;3.47;;
10511;SDS011;5304;48.604;2.096;2023-05-07T10:35:55;4.97;;;2.90;;
10511;SDS011;5304;48.604;2.096;2023-05-07T10:38:43;3.47;;;3.17;;
10511;SDS011;5304;48.604;2.096;2023-05-07T10:41:27;5.78;;;2.90;;
10511;SDS011;5304;48.604;2.096;2023-05-07T10:44:24;3.15;;;2.50;;
10511;SDS011;5304;48.604;2.096;2023-05-07T10:47:10;3.53;;;2.67;;
10511;SDS011;5304;48.604;2.096;2023-05-07T10:53:16;2.38;;;2.00;;
10511;SDS011;5304;48.604;2.096;2023-05-07T11:02:05;2.83;;;2.47;;
10511;SDS011;5304;48.604;2.096;2023-05-07T11:05:18;3.10;;;2.50;;
10511;SDS011;5304;48.604;2.096;2023-05-07T11:08:05;2.78;;;2.50;;
10511;SDS011;5304;48.604;2.096;2023-05-07T11:10:54;2.70;;;2.13;;
10511;SDS011;5304;48.604;2.096;2023-05-07T11:13:46;3.30;;;2.10;;
10511;SDS011;5304;48.604;2.096;2023-05-07T11:16:31;2.33;;;1.92;;
10511;SDS011;5304;48.604;2.096;2023-05-07T11:19:17;3.95;;;2.00;;
10511;SDS011;5304;48.604;2.096;2023-05-07T11:25:20;3.38;;;2.00;;
10511;SDS011;5304;48.604;2.096;2023-05-07T11:28:08;3.10;;;1.90;;
10511;SDS011;5304;48.604;2.096;2023-05-07T11:30:54;3.25;;;2.35;;
10511;SDS011;5304;48.604;2.096;2023-05-07T11:33:39;4.05;;;2.00;;
10511;SDS011;5304;48.604;2.096;2023-05-07T11:36:30;2.00;;;1.90;;
10511;SDS011;5304;48.604;2.096;2023-05-07T11:42:33;3.13;;;2.10;;
10511;SDS011;5304;48.604;2.096;2023-05-07T11:45:23;2.15;;;1.90;;
10511;SDS011;5304;48.604;2.096;2023-05-07T11:48:10;2.70;;;1.90;;
10511;SDS011;5304;48.604;2.096;2023-05-07T11:51:03;2.97;;;1.80;;
10511;SDS011;5304;48.604;2.096;2023-05-07T11:53:49;2.22;;;2.05;;
10511;SDS011;5304;48.604;2.096;2023-05-07T11:56:34;5.53;;;2.25;;
10511;SDS011;5304;48.604;2.096;2023-05-07T11:59:19;2.50;;;2.30;;
10511;SDS011;5304;48.604;2.096;2023-05-07T12:02:03;4.80;;;2.50;;
10511;SDS011;5304;48.604;2.096;2023-05-07T12:04:48;5.85;;;2.42;;
10511;SDS011;5304;48.604;2.096;2023-05-07T12:07:33;2.30;;;2.10;;
10511;SDS011;5304;48.604;2.096;2023-05-07T12:10:18;4.50;;;2.50;;
10511;SDS011;5304;48.604;2.096;2023-05-07T12:13:13;3.13;;;2.50;;
10511;SDS011;5304;48.604;2.096;2023-05-07T12:16:05;4.37;;;2.50;;
10511;SDS011;5304;48.604;2.096;2023-05-07T12:18:53;5.00;;;2.20;;
10511;SDS011;5304;48.604;2.096;2023-05-07T12:21:38;4.93;;;2.60;;
10511;SDS011;5304;48.604;2.096;2023-05-07T12:24:23;4.40;;;2.00;;
10511;SDS011;5304;48.604;2.096;2023-05-07T12:27:08;5.90;;;2.20;;
10511;SDS011;5304;48.604;2.096;2023-05-07T12:29:53;3.63;;;2.30;;
10511;SDS011;5304;48.604;2.096;2023-05-07T12:32:37;3.63;;;2.63;;
10511;SDS011;5304;48.604;2.096;2023-05-07T12:38:14;5.57;;;2.90;;
10511;SDS011;5304;48.604;2.096;2023-05-07T12:40:59;5.30;;;2.77;;
10511;SDS011;5304;48.604;2.096;2023-05-07T12:43:44;4.83;;;2.90;;
10511;SDS011;5304;48.604;2.096;2023-05-07T12:46:29;6.30;;;3.63;;
10511;SDS011;5304;48.604;2.096;2023-05-07T12:49:13;4.07;;;3.57;;
10511;SDS011;5304;48.604;2.096;2023-05-07T12:51:58;7.47;;;3.40;;
10511;SDS011;5304;48.604;2.096;2023-05-07T12:54:42;4.57;;;2.10;;
10511;SDS011;5304;48.604;2.096;2023-05-07T12:57:28;2.03;;;1.83;;
10511;SDS011;5304;48.604;2.096;2023-05-07T13:00:13;4.13;;;1.37;;
10511;SDS011;5304;48.604;2.096;2023-05-07T13:02:57;3.13;;;1.70;;
10511;SDS011;5304;48.604;2.096;2023-05-07T13:05:42;3.03;;;1.60;;
10511;SDS011;5304;48.604;2.096;2023-05-07T13:08:33;2.97;;;1.40;;
10511;SDS011;5304;48.604;2.096;2023-05-07T13:11:21;4.53;;;2.23;;
10511;SDS011;5304;48.604;2.096;2023-05-07T13:14:07;5.67;;;2.03;;
10511;SDS011;5304;48.604;2.096;2023-05-07T13:16:52;3.33;;;2.40;;
10511;SDS011;5304;48.604;2.096;2023-05-07T13:19:36;3.20;;;2.33;;
10511;SDS011;5304;48.604;2.096;2023-05-07T13:22:21;1.97;;;1.87;;
10511;SDS011;5304;48.604;2.096;2023-05-07T13:25:05;2.63;;;2.43;;
10511;SDS011;5304;48.604;2.096;2023-05-07T13:27:50;3.33;;;2.47;;
10511;SDS011;5304;48.604;2.096;2023-05-07T13:30:35;5.83;;;2.57;;
10511;SDS011;5304;48.604;2.096;2023-05-07T13:33:19;3.30;;;2.60;;
10511;SDS011;5304;48.604;2.096;2023-05-07T13:36:04;5.63;;;2.50;;
10511;SDS011;5304;48.604;2.096;2023-05-07T13:38:49;3.37;;;3.07;;
10511;SDS011;5304;48.604;2.096;2023-05-07T13:41:35;2.77;;;2.57;;
10511;SDS011;5304;48.604;2.096;2023-05-07T13:44:19;3.00;;;2.70;;
10511;SDS011;5304;48.604;2.096;2023-05-07T13:47:04;3.63;;;3.33;;
10511;SDS011;5304;48.604;2.096;2023-05-07T13:49:49;3.63;;;3.33;;
10511;SDS011;5304;48.604;2.096;2023-05-07T13:52:33;3.40;;;2.90;;
10511;SDS011;5304;48.604;2.096;2023-05-07T13:55:18;4.53;;;3.50;;
10511;SDS011;5304;48.604;2.096;2023-05-07T13:58:07;3.93;;;3.50;;
10511;SDS011;5304;48.604;2.096;2023-05-07T14:00:53;3.60;;;3.30;;
10511;SDS011;5304;48.604;2.096;2023-05-07T14:03:37;3.40;;;3.10;;
10511;SDS011;5304;48.604;2.096;2023-05-07T14:06:23;3.80;;;3.13;;
10511;SDS011;5304;48.604;2.096;2023-05-07T14:09:07;5.10;;;3.23;;
10511;SDS011;5304;48.604;2.096;2023-05-07T14:11:51;6.63;;;3.10;;
10511;SDS011;5304;48.604;2.096;2023-05-07T14:14:36;3.80;;;3.40;;
10511;SDS011;5304;48.604;2.096;2023-05-07T14:17:20;4.20;;;3.50;;
10511;SDS011;5304;48.604;2.096;2023-05-07T14:20:07;3.93;;;3.27;;
10511;SDS011;5304;48.604;2.096;2023-05-07T14:22:52;3.13;;;2.70;;
10511;SDS011;5304;48.604;2.096;2023-05-07T14:25:36;5.43;;;2.90;;
10511;SDS011;5304;48.604;2.096;2023-05-07T14:28:20;3.57;;;2.83;;
10511;SDS011;5304;48.604;2.096;2023-05-07T14:31:05;3.88;;;3.10;;
10511;SDS011;5304;48.604;2.096;2023-05-07T14:33:49;3.53;;;3.22;;
10511;SDS011;5304;48.604;2.096;2023-05-07T14:36:34;5.40;;;3.13;;
10511;SDS011;5304;48.604;2.096;2023-05-07T14:39:18;3.30;;;3.00;;
10511;SDS011;5304;48.604;2.096;2023-05-07T14:42:03;3.17;;;2.87;;
10511;SDS011;5304;48.604;2.096;2023-05-07T14:44:50;3.85;;;3.45;;
10511;SDS011;5304;48.604;2.096;2023-05-07T14:47:36;4.22;;;3.50;;
10511;SDS011;5304;48.604;2.096;2023-05-07T14:50:21;6.93;;;3.70;;
10511;SDS011;5304;48.604;2.096;2023-05-07T14:53:05;4.07;;;3.67;;
10511;SDS011;5304;48.604;2.096;2023-05-07T14:55:49;5.70;;;3.83;;
10511;SDS011;5304;48.604;2.096;2023-05-07T14:58:34;4.57;;;3.40;;
10511;SDS011;5304;48.604;2.096;2023-05-07T15:01:19;7.70;;;3.30;;
10511;SDS011;5304;48.604;2.096;2023-05-07T15:04:04;7.38;;;3.60;;
10511;SDS011;5304;48.604;2.096;2023-05-07T15:06:48;5.38;;;3.58;;
10511;SDS011;5304;48.604;2.096;2023-05-07T15:09:32;3.90;;;3.42;;
10511;SDS011;5304;48.604;2.096;2023-05-07T15:12:17;5.17;;;3.60;;
10511;SDS011;5304;48.604;2.096;2023-05-07T15:15:01;5.82;;;3.50;;
10511;SDS011;5304;48.604;2.096;2023-05-07T15:17:45;3.40;;;3.10;;
10511;SDS011;5304;48.604;2.096;2023-05-07T15:20:30;3.53;;;2.90;;
10511;SDS011;5304;48.604;2.096;2023-05-07T15:23:15;3.40;;;3.10;;
10511;SDS011;5304;48.604;2.096;2023-05-07T15:26:00;3.92;;;3.53;;
10511;SDS011;5304;48.604;2.096;2023-05-07T15:28:45;5.20;;;3.80;;
10511;SDS011;5304;48.604;2.096;2023-05-07T15:31:29;4.43;;;4.03;;
10511;SDS011;5304;48.604;2.096;2023-05-07T15:34:15;6.80;;;4.93;;
10511;SDS011;5304;48.604;2.096;2023-05-07T15:37:00;4.78;;;4.10;;
10511;SDS011;5304;48.604;2.096;2023-05-07T15:39:44;4.72;;;4.30;;
10511;SDS011;5304;48.604;2.096;2023-05-07T15:42:29;6.63;;;4.63;;
10511;SDS011;5304;48.604;2.096;2023-05-07T15:45:13;7.78;;;4.63;;
10511;SDS011;5304;48.604;2.096;2023-05-07T15:47:57;4.90;;;4.50;;
10511;SDS011;5304;48.604;2.096;2023-05-07T15:50:42;4.88;;;4.07;;
10511;SDS011;5304;48.604;2.096;2023-05-07T15:53:27;7.60;;;3.85;;
10511;SDS011;5304;48.604;2.096;2023-05-07T15:56:11;6.00;;;3.97;;
10511;SDS011;5304;48.604;2.096;2023-05-07T15:58:56;6.60;;;4.35;;
10511;SDS011;5304;48.604;2.096;2023-05-07T16:01:41;5.63;;;4.20;;
10511;SDS011;5304;48.604;2.096;2023-05-07T16:04:26;6.38;;;3.78;;
10511;SDS011;5304;48.604;2.096;2023-05-07T16:07:10;5.25;;;3.85;;
10511;SDS011;5304;48.604;2.096;2023-05-07T16:09:55;6.32;;;4.18;;
10511;SDS011;5304;48.604;2.096;2023-05-07T16:12:39;7.25;;;4.85;;
10511;SDS011;5304;48.604;2.096;2023-05-07T16:15:24;5.57;;;4.85;;
10511;SDS011;5304;48.604;2.096;2023-05-07T16:18:09;7.10;;;4.88;;
10511;SDS011;5304;48.604;2.096;2023-05-07T16:20:54;5.90;;;4.55;;
10511;SDS011;5304;48.604;2.096;2023-05-07T16:23:40;5.10;;;3.67;;
10511;SDS011;5304;48.604;2.096;2023-05-07T16:26:25;3.58;;;3.17;;
10511;SDS011;5304;48.604;2.096;2023-05-07T16:29:09;3.65;;;3.00;;
10511;SDS011;5304;48.604;2.096;2023-05-07T16:31:55;4.68;;;2.70;;
10511;SDS011;5304;48.604;2.096;2023-05-07T16:34:40;3.20;;;2.60;;
10511;SDS011;5304;48.604;2.096;2023-05-07T16:37:24;3.15;;;2.38;;
10511;SDS011;5304;48.604;2.096;2023-05-07T16:40:09;4.05;;;3.05;;
10511;SDS011;5304;48.604;2.096;2023-05-07T16:42:53;2.58;;;2.20;;
10511;SDS011;5304;48.604;2.096;2023-05-07T16:45:38;2.83;;;2.55;;
10511;SDS011;5304;48.604;2.096;2023-05-07T16:48:22;2.65;;;2.22;;
10511;SDS011;5304;48.604;2.096;2023-05-07T16:51:06;2.60;;;2.05;;
10511;SDS011;5304;48.604;2.096;2023-05-07T16:53:52;6.47;;;2.35;;
10511;SDS011;5304;48.604;2.096;2023-05-07T16:56:37;2.50;;;2.30;;
10511;SDS011;5304;48.604;2.096;2023-05-07T16:59:22;2.50;;;2.30;;
10511;SDS011;5304;48.604;2.096;2023-05-07T17:02:06;3.08;;;2.50;;
10511;SDS011;5304;48.604;2.096;2023-05-07T17:04:53;7.07;;;2.85;;
10511;SDS011;5304;48.604;2.096;2023-05-07T17:07:38;5.50;;;2.65;;
10511;SDS011;5304;48.604;2.096;2023-05-07T17:10:25;3.20;;;2.72;;
10511;SDS011;5304;48.604;2.096;2023-05-07T17:13:10;4.25;;;2.10;;